Time;durP1;ratioP1;P1;durP2;ratioP2;P2;SDS_P1;SDS_P2;PMS_P1;PMS_P2;Temp;Humidity;BMP_temperature;BMP_pressure;BME280_temperature;BME280_humidity;BME280_pressure;Samples;Min_cycle;Max_cycle;Signal;HPM_P1;HPM_P2
2022/11/29 00:01:05;;;;;;;0.00;0.00;;;;;;;7.01;52.89;95335.91;4951080;28;20653;-65
2022/11/29 00:03:33;;;;;;;0.00;0.00;;;;;;;7.01;52.56;95338.50;4944503;29;20660;-69
2022/11/29 00:06:11;;;;;;;0.00;0.00;;;;;;;6.66;53.03;95340.97;4938961;28;20656;-64
2022/11/29 00:08:40;;;;;;;0.00;0.00;;;;;;;6.79;52.92;95338.19;4943579;29;20207;-67
2022/11/29 00:11:10;;;;;;;0.00;0.00;;;;;;;6.99;52.25;95325.69;4953884;28;20204;-64
2022/11/29 00:13:37;;;;;;;0.10;0.10;;;;;;;7.01;52.30;95336.69;4945950;28;20220;-64
2022/11/29 00:16:07;;;;;;;0.00;0.00;;;;;;;7.01;52.12;95346.31;4948924;28;20231;-63
2022/11/29 00:18:34;;;;;;;0.00;0.00;;;;;;;7.16;51.96;95341.50;4953665;28;20196;-62
2022/11/29 00:21:08;;;;;;;0.47;0.38;;;;;;;7.30;51.36;95334.28;4953983;28;20208;-62
2022/11/29 00:23:35;;;;;;;0.00;0.00;;;;;;;7.09;51.95;95346.81;4941140;29;20196;-64
2022/11/29 00:26:04;;;;;;;0.00;0.00;;;;;;;7.21;51.09;95346.06;4953983;28;20206;-62
2022/11/29 00:28:31;;;;;;;0.00;0.00;;;;;;;7.53;51.41;95340.31;4954138;28;20855;-63
2022/11/29 00:30:58;;;;;;;0.00;0.00;;;;;;;7.72;51.01;95344.41;4942979;28;20541;-62
2022/11/29 00:33:25;;;;;;;0.00;0.00;;;;;;;7.87;50.50;95338.75;4947693;29;20243;-70
2022/11/29 00:35:52;;;;;;;0.00;0.00;;;;;;;7.72;51.58;95346.25;4934343;28;20578;-66
2022/11/29 00:38:18;;;;;;;0.00;0.00;;;;;;;7.75;50.89;95349.19;4935901;29;20204;-66
2022/11/29 00:40:50;;;;;;;0.00;0.00;;;;;;;7.64;51.63;95341.34;4946293;28;20264;-67
2022/11/29 00:43:17;;;;;;;0.05;0.05;;;;;;;7.70;51.44;95346.44;4934131;29;20224;-63
2022/11/29 00:45:44;;;;;;;2.95;0.57;;;;;;;7.52;52.09;95345.78;4934169;29;20204;-64
2022/11/29 00:48:11;;;;;;;0.10;0.10;;;;;;;7.33;52.27;95345.06;4946196;29;20231;-67
2022/11/29 00:50:37;;;;;;;0.05;0.05;;;;;;;7.40;52.12;95344.94;4936180;28;20248;-62
2022/11/29 00:53:04;;;;;;;0.00;0.00;;;;;;;7.36;51.95;95346.41;4941182;29;20803;-66
2022/11/29 00:55:31;;;;;;;0.00;0.00;;;;;;;7.35;52.50;95342.22;4940257;28;20214;-64
2022/11/29 00:57:58;;;;;;;0.00;0.00;;;;;;;7.38;52.71;95352.19;4952618;29;20200;-62
2022/11/29 01:00:25;;;;;;;0.00;0.00;;;;;;;7.54;51.86;95335.88;4953111;28;20504;-66
2022/11/29 01:02:51;;;;;;;2.22;1.73;;;;;;;7.74;51.68;95346.78;4939072;28;20286;-62
2022/11/29 01:05:18;;;;;;;0.03;0.03;;;;;;;7.54;51.48;95341.09;4952877;28;20266;-67
2022/11/29 01:07:45;;;;;;;0.00;0.00;;;;;;;7.52;51.63;95333.50;4939327;28;20201;-65
2022/11/29 01:10:12;;;;;;;0.00;0.00;;;;;;;7.41;51.92;95331.69;4952899;28;20200;-62
2022/11/29 01:12:39;;;;;;;0.03;0.03;;;;;;;7.46;52.74;95328.41;4952286;28;20238;-64
2022/11/29 01:15:07;;;;;;;0.13;0.13;;;;;;;7.54;51.67;95336.69;4953140;28;20200;-64
2022/11/29 01:17:34;;;;;;;0.32;0.32;;;;;;;7.65;51.33;95335.09;4952511;28;20258;-63
2022/11/29 01:20:03;;;;;;;0.17;0.17;;;;;;;7.65;51.57;95337.72;4952537;28;20856;-64
2022/11/29 01:22:30;;;;;;;0.85;0.80;;;;;;;7.43;52.37;95336.66;4947866;28;20196;-66
2022/11/29 01:24:57;;;;;;;0.00;0.00;;;;;;;7.38;52.21;95328.72;4946941;28;20688;-64
2022/11/29 01:27:24;;;;;;;0.13;0.13;;;;;;;7.45;52.20;95326.81;4942996;28;20291;-62
2022/11/29 01:29:51;;;;;;;0.00;0.00;;;;;;;7.40;52.37;95329.31;4936828;29;20228;-67
2022/11/29 01:32:18;;;;;;;0.10;0.10;;;;;;;7.65;51.82;95328.09;4933148;29;20205;-65
2022/11/29 01:34:44;;;;;;;0.00;0.00;;;;;;;7.67;51.20;95330.47;4946711;28;20203;-62
2022/11/29 01:37:12;;;;;;;0.00;0.00;;;;;;;7.73;51.89;95326.94;4940127;29;20206;-66
2022/11/29 01:39:39;;;;;;;0.00;0.00;;;;;;;7.43;52.66;95318.41;4951151;29;20255;-62
2022/11/29 01:42:05;;;;;;;0.00;0.00;;;;;;;7.44;52.43;95309.59;4947603;28;20701;-65
2022/11/29 01:44:32;;;;;;;1.48;0.47;;;;;;;7.37;52.17;95314.13;4943904;29;20672;-65
2022/11/29 01:46:59;;;;;;;0.00;0.00;;;;;;;7.59;52.13;95317.78;4952259;28;20263;-64
2022/11/29 01:49:38;;;;;;;0.00;0.00;;;;;;;7.72;51.83;95317.56;4947065;28;20203;-65
2022/11/29 01:52:09;;;;;;;0.00;0.00;;;;;;;7.79;51.81;95318.22;4941257;29;20203;-62
2022/11/29 01:54:42;;;;;;;0.10;0.10;;;;;;;7.95;51.03;95307.09;4952104;29;20668;-61
2022/11/29 01:57:09;;;;;;;0.63;0.63;;;;;;;8.09;50.48;95308.44;4939534;29;20584;-61
2022/11/29 01:59:43;;;;;;;0.17;0.15;;;;;;;7.88;50.94;95301.97;4950947;29;20198;-68
2022/11/29 02:02:20;;;;;;;0.08;0.08;;;;;;;8.06;50.85;95303.69;4939731;28;20259;-67
2022/11/29 02:04:49;;;;;;;0.57;0.57;;;;;;;7.76;51.64;95297.78;4938045;29;20204;-64
2022/11/29 02:07:16;;;;;;;0.10;0.10;;;;;;;7.44;51.82;95299.16;4951910;28;20251;-66
2022/11/29 02:09:43;;;;;;;0.30;0.30;;;;;;;7.33;52.50;95297.34;4951832;28;20196;-65
2022/11/29 02:12:33;;;;;;;0.00;0.00;;;;;;;7.49;51.82;95299.28;4941890;28;20625;-61
2022/11/29 02:15:24;;;;;;;0.10;0.10;;;;;;;7.63;52.17;95292.81;4938125;28;20200;-63
2022/11/29 02:17:51;;;;;;;0.38;0.38;;;;;;;7.41;52.66;95294.41;4951440;28;20648;-68
2022/11/29 02:20:36;;;;;;;0.03;0.03;;;;;;;7.37;51.98;95298.47;4944532;28;20208;-62
2022/11/29 02:23:06;;;;;;;0.00;0.00;;;;;;;7.35;52.79;95295.31;4947899;28;20206;-65
2022/11/29 02:25:53;;;;;;;0.50;0.50;;;;;;;7.27;52.63;95293.00;4943538;28;20267;-63
2022/11/29 02:28:54;;;;;;;0.38;0.38;;;;;;;7.12;52.84;95294.25;4948941;28;20250;-63
2022/11/29 02:31:33;;;;;;;2.83;1.85;;;;;;;7.30;52.85;95292.59;4937858;28;20205;-64
2022/11/29 02:34:06;;;;;;;0.60;0.47;;;;;;;7.29;53.06;95290.97;4951111;28;20266;-65
2022/11/29 02:36:55;;;;;;;0.00;0.00;;;;;;;7.43;52.28;95297.56;4938115;28;20234;-65
2022/11/29 02:39:52;;;;;;;0.13;0.13;;;;;;;7.31;52.31;95294.16;4951848;28;20753;-64
2022/11/29 02:42:48;;;;;;;0.90;0.90;;;;;;;7.30;53.04;95303.00;4938663;29;20202;-67
2022/11/29 02:45:37;;;;;;;0.00;0.00;;;;;;;7.37;52.62;95301.09;4934335;28;20204;-70
2022/11/29 02:48:16;;;;;;;0.00;0.00;;;;;;;7.28;52.98;95307.66;4943373;29;20235;-63
2022/11/29 02:50:51;;;;;;;0.20;0.20;;;;;;;7.22;53.47;95311.94;4947372;28;20204;-60
2022/11/29 02:53:36;;;;;;;0.90;0.85;;;;;;;7.26;53.38;95296.66;4941321;29;20233;-69
2022/11/29 02:56:07;;;;;;;0.10;0.10;;;;;;;7.65;52.32;95301.19;4934519;28;20280;-61
2022/11/29 02:58:50;;;;;;;0.20;0.20;;;;;;;7.57;52.09;95299.72;4942277;28;20224;-67
2022/11/29 03:01:43;;;;;;;0.80;0.30;;;;;;;7.40;52.80;95305.84;4938005;28;20196;-68
2022/11/29 03:04:32;;;;;;;0.00;0.00;;;;;;;7.49;52.42;95301.88;4937455;29;20231;-67
2022/11/29 03:07:29;;;;;;;0.00;0.00;;;;;;;7.22;52.37;95302.28;4941762;28;20197;-64
2022/11/29 03:10:12;;;;;;;0.00;0.00;;;;;;;7.35;52.31;95305.72;4940154;28;20292;-63
2022/11/29 03:12:49;;;;;;;0.63;0.63;;;;;;;7.12;52.92;95301.25;4951103;28;20249;-63
2022/11/29 03:15:21;;;;;;;0.00;0.00;;;;;;;7.27;52.79;95299.03;4955027;28;20267;-67
2022/11/29 03:18:10;;;;;;;0.00;0.00;;;;;;;7.34;52.50;95304.91;4941272;28;20281;-66
2022/11/29 03:21:07;;;;;;;0.00;0.00;;;;;;;7.32;51.90;95298.38;4945403;29;20231;-65
2022/11/29 03:23:44;;;;;;;0.20;0.20;;;;;;;7.40;51.88;95313.66;4943049;28;20208;-70
2022/11/29 03:26:19;;;;;;;0.00;0.00;;;;;;;7.47;52.01;95312.53;4941543;28;20287;-66
2022/11/29 03:28:59;;;;;;;0.00;0.00;;;;;;;7.52;51.87;95311.88;4942564;29;20561;-65
2022/11/29 03:31:46;;;;;;;0.00;0.00;;;;;;;7.28;52.76;95305.03;4941205;28;20235;-67
2022/11/29 03:34:18;;;;;;;0.00;0.00;;;;;;;7.41;52.15;95310.81;4954697;28;20663;-66
2022/11/29 03:37:09;;;;;;;0.00;0.00;;;;;;;7.44;52.27;95314.81;4954551;28;20822;-67
2022/11/29 03:40:05;;;;;;;0.10;0.10;;;;;;;7.31;52.22;95322.81;4942482;28;20275;-63
2022/11/29 03:42:39;;;;;;;0.47;0.30;;;;;;;7.12;52.47;95327.31;4944765;28;20227;-66
2022/11/29 03:45:24;;;;;;;0.08;0.08;;;;;;;7.21;52.72;95320.75;4940720;28;20203;-66
2022/11/29 03:47:58;;;;;;;0.10;0.10;;;;;;;7.36;52.04;95317.72;4944842;28;20311;-67
2022/11/29 03:50:33;;;;;;;0.00;0.00;;;;;;;7.60;51.60;95319.34;4948463;29;20200;-70
2022/11/29 03:53:10;;;;;;;0.00;0.00;;;;;;;7.39;52.04;95317.31;4941889;29;20211;-62
2022/11/29 03:56:24;;;;;;;0.00;0.00;;;;;;;7.40;52.46;95313.66;4940305;28;20679;-63
2022/11/29 03:59:00;;;;;;;0.00;0.00;;;;;;;7.55;51.72;95311.41;4936178;29;20213;-64
2022/11/29 04:02:04;;;;;;;0.30;0.30;;;;;;;7.69;51.09;95316.19;4941014;29;20755;-64
2022/11/29 04:04:39;;;;;;;0.20;0.20;;;;;;;7.41;52.53;95310.81;4953785;28;20199;-68
2022/11/29 04:07:22;;;;;;;0.00;0.00;;;;;;;7.80;51.13;95311.97;4953937;28;20196;-63
2022/11/29 04:10:02;;;;;;;0.43;0.43;;;;;;;6.98;52.60;95316.31;4940626;28;20226;-63
2022/11/29 04:12:41;;;;;;;0.00;0.00;;;;;;;6.94;53.38;95319.56;4941653;28;20224;-64
2022/11/29 04:15:41;;;;;;;0.00;0.00;;;;;;;6.88;53.34;95313.44;4941599;28;20493;-62
2022/11/29 04:18:48;;;;;;;0.17;0.17;;;;;;;6.62;54.22;95326.03;4940464;28;20295;-66
2022/11/29 04:21:24;;;;;;;0.00;0.00;;;;;;;6.90;53.62;95319.22;4954016;28;20188;-66
2022/11/29 04:23:54;;;;;;;1.60;1.33;;;;;;;7.18;53.60;95322.03;4945170;28;20223;-64
2022/11/29 04:26:58;;;;;;;0.00;0.00;;;;;;;7.20;53.57;95332.22;4934898;29;20266;-62
2022/11/29 04:29:54;;;;;;;0.00;0.00;;;;;;;7.30;53.13;95329.06;4946590;29;20235;-66
2022/11/29 04:32:38;;;;;;;0.00;0.00;;;;;;;7.22;52.93;95321.56;4945923;28;21166;-67
2022/11/29 04:35:08;;;;;;;0.00;0.00;;;;;;;7.32;52.38;95321.81;4947996;28;20291;-65
2022/11/29 04:37:53;;;;;;;0.20;0.20;;;;;;;7.34;52.41;95325.78;4944044;28;20215;-65
2022/11/29 04:40:42;;;;;;;0.00;0.00;;;;;;;7.44;52.65;95325.22;4940063;28;20207;-61
2022/11/29 04:43:47;;;;;;;0.00;0.00;;;;;;;7.33;52.39;95326.00;4940977;29;20201;-63
2022/11/29 04:46:29;;;;;;;0.10;0.10;;;;;;;7.45;51.88;95321.59;4952245;28;20212;-67
2022/11/29 04:49:24;;;;;;;0.10;0.10;;;;;;;7.50;52.24;95321.72;4952327;29;20299;-65
2022/11/29 04:52:16;;;;;;;0.00;0.00;;;;;;;7.57;52.66;95319.81;4943198;28;20219;-62
2022/11/29 04:55:13;;;;;;;0.00;0.00;;;;;;;7.33;53.05;95311.16;4945511;29;20236;-66
2022/11/29 04:58:03;;;;;;;0.82;0.75;;;;;;;7.47;52.85;95315.16;4948122;29;20287;-65
2022/11/29 05:00:38;;;;;;;0.00;0.00;;;;;;;7.34;53.18;95314.56;4943917;28;20667;-69
2022/11/29 05:03:24;;;;;;;0.10;0.10;;;;;;;6.84;54.31;95325.31;4934195;29;20196;-65
2022/11/29 05:06:07;;;;;;;0.10;0.10;;;;;;;6.89;54.41;95322.84;4932660;29;20243;-64
2022/11/29 05:08:49;;;;;;;0.10;0.10;;;;;;;6.93;54.27;95321.38;4933027;29;20204;-67
2022/11/29 05:11:31;;;;;;;0.00;0.00;;;;;;;6.50;54.83;95312.16;4949740;29;20195;-67
2022/11/29 05:14:10;;;;;;;0.00;0.00;;;;;;;6.66;54.90;95321.97;4952561;28;20327;-61
2022/11/29 05:16:46;;;;;;;0.00;0.00;;;;;;;6.83;54.38;95322.94;4952618;28;20242;-65
2022/11/29 05:19:34;;;;;;;1.38;1.27;;;;;;;6.51;55.18;95324.97;4951428;29;20202;-68
2022/11/29 05:22:39;;;;;;;0.00;0.00;;;;;;;6.65;55.20;95321.19;4940577;28;20200;-65
2022/11/29 05:26:01;;;;;;;0.00;0.00;;;;;;;6.63;54.70;95318.00;4941851;29;20223;-67
2022/11/29 05:28:47;;;;;;;0.00;0.00;;;;;;;6.63;54.75;95328.41;4898958;29;20216;-66
2022/11/29 05:31:19;;;;;;;0.08;0.08;;;;;;;6.83;54.50;95315.91;4933149;29;20196;-65
2022/11/29 05:33:56;;;;;;;0.00;0.00;;;;;;;6.89;54.79;95320.25;4933119;29;20213;-66
2022/11/29 05:36:32;;;;;;;0.00;0.00;;;;;;;6.93;55.50;95318.00;4932083;29;20586;-68
2022/11/29 05:39:18;;;;;;;0.10;0.10;;;;;;;6.39;55.75;95318.91;4933433;29;20228;-62
2022/11/29 05:42:06;;;;;;;0.20;0.20;;;;;;;6.71;56.01;95335.94;4941782;29;20207;-61
2022/11/29 05:44:44;;;;;;;0.00;0.00;;;;;;;6.81;55.16;95330.97;4935032;28;20668;-66
2022/11/29 05:47:20;;;;;;;0.13;0.13;;;;;;;6.85;55.41;95332.13;4944038;29;20253;-63
2022/11/29 05:50:02;;;;;;;0.00;0.00;;;;;;;6.96;54.59;95333.16;4933255;28;20682;-67
2022/11/29 05:52:40;;;;;;;0.65;0.57;;;;;;;6.98;55.07;95331.94;4935134;29;20604;-68
2022/11/29 05:55:18;;;;;;;0.00;0.00;;;;;;;6.96;54.92;95338.38;4942246;28;20212;-69
2022/11/29 05:58:19;;;;;;;0.00;0.00;;;;;;;6.76;56.87;95337.84;4949675;29;20199;-65
2022/11/29 06:01:13;;;;;;;4.13;3.13;;;;;;;6.78;57.55;95330.63;4937444;29;20287;-61
2022/11/29 06:03:49;;;;;;;0.98;0.98;;;;;;;7.43;57.24;95334.06;4942136;28;20296;-66
2022/11/29 06:06:28;;;;;;;1.48;1.17;;;;;;;7.46;56.02;95328.41;4936432;29;20234;-67
2022/11/29 06:09:13;;;;;;;0.10;0.10;;;;;;;7.45;55.43;95332.03;4952211;28;20266;-64
2022/11/29 06:12:15;;;;;;;0.43;0.43;;;;;;;7.42;54.67;95327.25;4940764;28;20203;-69
2022/11/29 06:15:18;;;;;;;1.15;1.08;;;;;;;7.21;56.93;95325.97;4946404;29;20647;-73
2022/11/29 06:18:01;;;;;;;0.82;0.43;;;;;;;7.36;55.50;95328.16;4946642;29;20224;-71
2022/11/29 06:20:59;;;;;;;0.30;0.30;;;;;;;7.27;55.38;95324.28;4943506;28;20740;-67
2022/11/29 06:23:40;;;;;;;0.43;0.43;;;;;;;7.24;54.50;95325.56;4933136;29;20739;-69
2022/11/29 06:26:11;;;;;;;0.35;0.35;;;;;;;7.18;54.72;95329.03;4932735;29;20197;-63
2022/11/29 06:28:50;;;;;;;0.30;0.30;;;;;;;7.22;54.73;95328.34;4938429;29;20231;-62
2022/11/29 06:31:27;;;;;;;1.30;0.43;;;;;;;6.96;54.69;95333.16;4938252;28;20616;-69
2022/11/29 06:34:10;;;;;;;0.20;0.20;;;;;;;7.08;55.15;95336.59;4932422;28;20782;-72
2022/11/29 06:36:55;;;;;;;0.15;0.15;;;;;;;7.33;54.61;95323.41;4945955;29;20207;-68
2022/11/29 06:39:22;;;;;;;0.95;0.90;;;;;;;7.31;54.79;95321.03;4933802;29;20207;-63
2022/11/29 06:41:49;;;;;;;0.20;0.20;;;;;;;7.15;54.63;95327.66;4944394;29;20193;-63
2022/11/29 06:44:16;;;;;;;0.45;0.45;;;;;;;7.31;54.59;95330.66;4940396;29;20199;-62
2022/11/29 06:46:46;;;;;;;1.85;1.33;;;;;;;7.07;54.83;95343.63;4935082;29;20323;-68
2022/11/29 06:49:21;;;;;;;0.00;0.00;;;;;;;7.07;55.31;95338.44;4939850;29;20218;-65
2022/11/29 06:52:00;;;;;;;0.00;0.00;;;;;;;7.32;55.36;95327.03;4936921;28;20212;-68
2022/11/29 06:54:46;;;;;;;0.30;0.30;;;;;;;7.28;55.47;95336.31;4931855;29;20212;-64
2022/11/29 06:57:31;;;;;;;0.08;0.08;;;;;;;7.22;55.24;95348.44;4932483;28;20204;-63
2022/11/29 07:00:10;;;;;;;1.08;0.95;;;;;;;7.33;54.19;95339.03;4939404;29;20199;-65
2022/11/29 07:02:39;;;;;;;3.05;1.70;;;;;;;7.22;54.66;95345.03;4937554;28;20200;-64
2022/11/29 07:05:45;;;;;;;0.00;0.00;;;;;;;7.05;54.16;95337.84;4943636;28;20293;-65
2022/11/29 07:08:18;;;;;;;0.00;0.00;;;;;;;7.37;54.01;95342.78;4951616;28;20549;-66
2022/11/29 07:10:49;;;;;;;0.22;0.22;;;;;;;7.45;53.78;95342.44;4951285;28;20745;-66
2022/11/29 07:13:16;;;;;;;0.10;0.10;;;;;;;7.18;56.22;95340.28;4937818;28;20223;-64
2022/11/29 07:16:02;;;;;;;0.00;0.00;;;;;;;7.47;56.12;95343.81;4951089;28;20676;-65
2022/11/29 07:18:39;;;;;;;1.50;0.95;;;;;;;7.79;53.88;95344.31;4932077;29;20644;-67
2022/11/29 07:21:09;;;;;;;0.75;0.65;;;;;;;7.69;53.54;95344.88;4945658;28;20266;-63
2022/11/29 07:23:42;;;;;;;0.55;0.17;;;;;;;7.61;53.68;95349.63;4944651;28;20193;-66
2022/11/29 07:26:45;;;;;;;0.10;0.10;;;;;;;7.37;53.04;95334.97;4944925;29;20587;-65
2022/11/29 07:29:24;;;;;;;0.00;0.00;;;;;;;7.48;52.84;95342.78;4942190;29;20199;-64
2022/11/29 07:32:05;;;;;;;0.00;0.00;;;;;;;7.31;52.92;95351.50;4950881;28;20204;-65
2022/11/29 07:34:55;;;;;;;0.00;0.00;;;;;;;7.59;52.72;95351.66;4938788;28;20236;-65
2022/11/29 07:38:00;;;;;;;0.00;0.00;;;;;;;7.67;51.99;95356.53;4936564;29;20235;-65
2022/11/29 07:40:34;;;;;;;0.00;0.00;;;;;;;7.70;52.06;95358.72;4950908;28;20215;-66
2022/11/29 07:43:18;;;;;;;0.00;0.00;;;;;;;7.61;52.25;95355.63;4938645;28;20784;-64
2022/11/29 07:45:45;;;;;;;0.00;0.00;;;;;;;7.46;51.66;95355.28;4938983;28;20218;-68
2022/11/29 07:48:15;;;;;;;0.00;0.00;;;;;;;7.60;51.83;95340.22;4949897;29;20318;-64
2022/11/29 07:50:42;;;;;;;0.10;0.08;;;;;;;7.60;51.27;95348.84;4947202;29;20232;-64
2022/11/29 07:53:18;;;;;;;0.38;0.38;;;;;;;7.33;51.89;95352.06;4939668;29;20200;-63
2022/11/29 07:55:46;;;;;;;0.00;0.00;;;;;;;7.35;53.07;95357.88;4937360;28;20204;-62
2022/11/29 07:58:14;;;;;;;0.55;0.55;;;;;;;7.56;52.68;95354.72;4951029;28;20266;-65
2022/11/29 08:00:42;;;;;;;0.00;0.00;;;;;;;7.65;52.26;95350.75;4953565;28;20218;-65
2022/11/29 08:03:09;;;;;;;0.28;0.28;;;;;;;7.40;52.25;95355.38;4941090;29;20204;-63
2022/11/29 08:05:37;;;;;;;0.30;0.30;;;;;;;6.94;52.03;95350.81;4954118;28;20211;-65
2022/11/29 08:08:05;;;;;;;0.00;0.00;;;;;;;7.29;51.90;95358.75;4940272;28;20307;-63
2022/11/29 08:10:32;;;;;;;2.30;0.55;;;;;;;7.49;52.38;95361.84;4954338;28;20206;-66
2022/11/29 08:12:58;;;;;;;0.00;0.00;;;;;;;7.53;51.75;95360.38;4953595;28;20758;-67
2022/11/29 08:15:26;;;;;;;0.00;0.00;;;;;;;7.81;52.15;95360.53;4954425;28;20314;-67
2022/11/29 08:17:53;;;;;;;0.50;0.47;;;;;;;7.64;51.81;95357.81;4940710;28;20263;-66
2022/11/29 08:20:20;;;;;;;0.00;0.00;;;;;;;7.82;51.86;95359.50;4946739;28;20254;-67
2022/11/29 08:22:59;;;;;;;0.95;0.75;;;;;;;7.05;52.20;95353.47;4948158;29;20218;-64
2022/11/29 08:25:27;;;;;;;1.48;0.47;;;;;;;7.52;51.83;95354.38;4954087;28;20200;-66
2022/11/29 08:27:54;;;;;;;0.00;0.00;;;;;;;7.47;52.16;95345.63;4953755;28;20195;-65
2022/11/29 08:30:22;;;;;;;0.00;0.00;;;;;;;7.59;52.61;95356.88;4948082;28;20207;-64
2022/11/29 08:32:50;;;;;;;0.03;0.03;;;;;;;8.15;51.68;95354.50;4934880;29;20200;-67
2022/11/29 08:35:19;;;;;;;0.20;0.20;;;;;;;8.16;50.77;95350.84;4947731;28;20232;-67
2022/11/29 08:37:46;;;;;;;0.00;0.00;;;;;;;8.12;50.75;95355.75;4945239;29;20211;-65
2022/11/29 08:40:14;;;;;;;0.13;0.13;;;;;;;8.22;50.32;95355.16;4950234;28;20216;-65
2022/11/29 08:42:41;;;;;;;0.00;0.00;;;;;;;8.34;50.36;95353.34;4943907;29;20581;-66
2022/11/29 08:45:09;;;;;;;3.75;1.85;;;;;;;8.37;50.71;95360.75;4940089;28;20216;-67
2022/11/29 08:47:39;;;;;;;0.00;0.00;;;;;;;8.57;50.51;95360.34;4953360;29;20592;-67
2022/11/29 08:50:14;;;;;;;0.30;0.30;;;;;;;8.19;50.83;95360.88;4952787;28;20458;-65
2022/11/29 08:55:36;;;;;;;0.20;0.20;;;;;;;8.42;50.93;95363.47;4953854;28;20222;-68
2022/11/29 08:58:05;;;;;;;0.28;0.28;;;;;;;8.69;50.02;95361.91;4940120;28;20584;-66
2022/11/29 09:00:32;;;;;;;0.20;0.20;;;;;;;8.72;50.42;95348.38;4941576;28;20259;-66
2022/11/29 09:05:47;;;;;;;0.10;0.10;;;;;;;8.49;50.71;95351.06;4939847;28;20444;-65
2022/11/29 09:08:14;;;;;;;2.15;0.73;;;;;;;7.96;52.14;95350.41;4940215;28;20522;-65
2022/11/29 09:10:42;;;;;;;0.40;0.40;;;;;;;7.98;51.88;95335.31;4941631;28;20205;-69
2022/11/29 09:13:10;;;;;;;0.00;0.00;;;;;;;8.15;51.94;95346.66;4951963;28;20655;-67
2022/11/29 09:15:43;;;;;;;0.40;0.40;;;;;;;8.17;51.26;95337.56;4953113;28;20691;-64
2022/11/29 09:18:10;;;;;;;0.10;0.10;;;;;;;8.12;51.47;95344.50;4952748;28;20247;-64
2022/11/29 09:20:37;;;;;;;0.20;0.20;;;;;;;8.07;51.50;95339.19;4943463;28;20452;-65
2022/11/29 09:23:04;;;;;;;0.00;0.00;;;;;;;7.89;52.00;95349.75;4947057;28;20311;-69
2022/11/29 09:25:31;;;;;;;0.00;0.00;;;;;;;8.05;52.02;95341.22;4933173;29;20248;-62
2022/11/29 09:28:00;;;;;;;1.48;0.80;;;;;;;7.98;51.99;95335.31;4947352;29;20199;-68
2022/11/29 09:30:30;;;;;;;1.45;0.82;;;;;;;7.87;52.64;95333.53;4945900;28;20205;-65
2022/11/29 09:33:03;;;;;;;0.25;0.25;;;;;;;7.92;52.22;95328.41;4933066;29;20196;-64
2022/11/29 09:35:31;;;;;;;0.43;0.43;;;;;;;7.92;52.38;95331.00;4939729;29;20224;-66
2022/11/29 09:37:58;;;;;;;3.88;1.63;;;;;;;8.05;52.17;95328.97;4952883;28;20199;-70
2022/11/29 09:40:51;;;;;;;0.20;0.20;;;;;;;7.86;52.93;95330.13;4934243;28;20557;-67
2022/11/29 09:43:59;;;;;;;0.00;0.00;;;;;;;7.96;53.27;95321.72;4947219;28;20262;-67
2022/11/29 09:46:42;;;;;;;25.27;3.40;;;;;;;8.11;52.54;95311.59;4933003;29;20228;-65
2022/11/29 09:49:33;;;;;;;0.03;0.03;;;;;;;8.27;52.05;95321.38;4940149;29;20239;-67
2022/11/29 09:52:12;;;;;;;0.45;0.30;;;;;;;8.17;52.00;95316.69;4936353;28;20668;-66
2022/11/29 09:54:48;;;;;;;0.10;0.10;;;;;;;7.89;52.99;95313.22;4933277;29;20284;-65
2022/11/29 09:57:16;;;;;;;0.80;0.65;;;;;;;8.35;52.56;95307.97;4946630;29;20203;-64
2022/11/29 09:59:48;;;;;;;0.85;0.85;;;;;;;8.26;52.88;95301.50;4946559;28;20614;-62
2022/11/29 10:02:33;;;;;;;0.10;0.10;;;;;;;8.12;52.61;95297.53;4945392;28;20231;-67
2022/11/29 10:05:11;;;;;;;0.00;0.00;;;;;;;8.76;51.16;95297.25;4939499;28;20919;-66
2022/11/29 10:08:02;;;;;;;0.20;0.20;;;;;;;8.74;51.50;95290.69;4938621;28;20863;-64
2022/11/29 10:10:48;;;;;;;0.00;0.00;;;;;;;8.92;50.96;95287.88;4952071;28;20630;-68
2022/11/29 10:13:18;;;;;;;0.17;0.17;;;;;;;8.83;51.41;95290.06;4935079;28;20204;-64
2022/11/29 10:15:49;;;;;;;0.00;0.00;;;;;;;8.85;51.25;95288.00;4937487;28;20777;-63
2022/11/29 10:18:27;;;;;;;0.00;0.00;;;;;;;8.74;51.69;95285.47;4943257;28;21157;-68
2022/11/29 10:20:58;;;;;;;1.05;0.95;;;;;;;8.80;50.96;95280.09;4933755;28;20536;-65
2022/11/29 10:23:29;;;;;;;0.00;0.00;;;;;;;8.93;50.97;95279.78;4931579;29;20200;-67
2022/11/29 10:25:57;;;;;;;0.00;0.00;;;;;;;8.92;50.56;95277.41;4934092;28;20260;-62
2022/11/29 10:28:29;;;;;;;0.25;0.25;;;;;;;8.71;51.33;95276.25;4931495;29;20275;-67
2022/11/29 10:31:07;;;;;;;0.00;0.00;;;;;;;9.04;51.02;95276.31;4933785;28;20240;-64
2022/11/29 10:33:38;;;;;;;0.00;0.00;;;;;;;8.95;50.41;95267.28;4933183;28;20213;-67
2022/11/29 10:36:18;;;;;;;0.67;0.67;;;;;;;9.01;50.85;95268.94;4933574;28;21019;-66
2022/11/29 10:38:46;;;;;;;0.00;0.00;;;;;;;8.91;50.77;95271.38;4931287;28;20821;-64
2022/11/29 10:41:21;;;;;;;0.00;0.00;;;;;;;9.08;50.50;95261.75;4936036;28;20444;-68
2022/11/29 10:43:50;;;;;;;0.00;0.00;;;;;;;8.49;52.41;95277.13;4933133;28;20207;-67
2022/11/29 10:46:30;;;;;;;0.65;0.65;;;;;;;8.72;51.85;95259.53;4932808;28;20243;-66
2022/11/29 10:49:00;;;;;;;0.00;0.00;;;;;;;8.82;52.06;95251.09;4937564;28;20215;-71
2022/11/29 10:51:28;;;;;;;0.10;0.10;;;;;;;9.04;51.45;95271.09;4940049;28;20232;-65
2022/11/29 10:53:55;;;;;;;0.38;0.38;;;;;;;8.86;52.08;95267.91;4945487;28;20672;-72
2022/11/29 10:56:30;;;;;;;0.35;0.35;;;;;;;8.94;52.34;95259.69;4945042;28;20700;-68
2022/11/29 10:59:03;;;;;;;0.43;0.43;;;;;;;8.75;52.62;95266.94;4945172;28;20277;-70
2022/11/29 11:01:37;;;;;;;0.17;0.17;;;;;;;9.06;51.86;95261.19;4951212;28;20203;-65
2022/11/29 11:04:06;;;;;;;0.10;0.10;;;;;;;9.13;51.40;95247.97;4950914;28;20692;-62
2022/11/29 11:06:50;;;;;;;0.23;0.23;;;;;;;9.21;51.95;95256.19;4945366;29;20290;-67
2022/11/29 11:09:27;;;;;;;0.65;0.65;;;;;;;9.16;52.24;95253.50;4946424;28;20451;-64
2022/11/29 11:12:01;;;;;;;0.17;0.17;;;;;;;9.29;51.69;95255.00;4943419;28;20204;-66
2022/11/29 11:14:36;;;;;;;0.57;0.57;;;;;;;9.19;52.03;95252.25;4945014;28;20490;-67
2022/11/29 11:17:25;;;;;;;0.10;0.10;;;;;;;9.26;52.43;95257.31;4931952;29;20451;-64
2022/11/29 11:20:00;;;;;;;0.50;0.50;;;;;;;9.33;51.84;95257.94;4948991;28;20443;-67
2022/11/29 11:22:29;;;;;;;0.30;0.30;;;;;;;8.88;52.53;95261.41;4951471;28;20482;-65
2022/11/29 11:25:23;;;;;;;0.77;0.77;;;;;;;8.63;52.72;95268.78;4941119;28;20450;-68
2022/11/29 11:27:50;;;;;;;1.60;0.97;;;;;;;8.83;52.67;95268.38;4938450;28;20456;-65
2022/11/29 11:30:22;;;;;;;0.10;0.10;;;;;;;9.12;51.89;95259.47;4937050;28;20445;-66
2022/11/29 11:33:16;;;;;;;0.73;0.73;;;;;;;8.72;52.65;95266.59;4931106;29;20531;-64
2022/11/29 11:35:43;;;;;;;0.10;0.10;;;;;;;8.56;52.89;95268.13;4947707;28;21271;-67
2022/11/29 11:38:18;;;;;;;1.40;0.87;;;;;;;8.73;53.11;95268.19;4945594;28;20208;-68
2022/11/29 11:40:46;;;;;;;0.10;0.10;;;;;;;9.01;52.11;95271.56;4951507;28;20443;-67
2022/11/29 11:43:20;;;;;;;0.03;0.03;;;;;;;9.01;51.77;95266.31;4954446;28;20208;-63
2022/11/29 11:45:52;;;;;;;0.47;0.45;;;;;;;9.05;52.06;95277.13;4954109;28;20450;-65
2022/11/29 11:48:20;;;;;;;0.03;0.03;;;;;;;8.79;52.12;95273.28;4945316;28;20232;-64
2022/11/29 11:50:57;;;;;;;0.03;0.03;;;;;;;8.77;52.07;95272.72;4945282;28;20536;-66
2022/11/29 11:53:28;;;;;;;0.67;0.67;;;;;;;8.87;51.81;95275.50;4945157;29;20457;-67
2022/11/29 11:56:00;;;;;;;0.20;0.20;;;;;;;8.86;51.77;95268.69;4953986;28;20502;-66
2022/11/29 11:58:42;;;;;;;0.00;0.00;;;;;;;9.00;51.73;95259.53;4954221;28;21060;-64
2022/11/29 12:01:12;;;;;;;0.00;0.00;;;;;;;9.06;52.05;95263.81;4954164;28;20584;-62
2022/11/29 12:03:55;;;;;;;0.20;0.20;;;;;;;9.13;51.99;95274.09;4944636;29;20503;-66
2022/11/29 12:06:30;;;;;;;0.30;0.30;;;;;;;9.10;52.31;95270.13;4948611;28;20213;-63
2022/11/29 12:09:18;;;;;;;0.30;0.30;;;;;;;9.05;53.22;95270.06;4934451;28;21024;-66
2022/11/29 12:12:10;;;;;;;0.27;0.27;;;;;;;9.04;52.57;95265.88;4960501;28;20458;-67
2022/11/29 12:14:58;;;;;;;2.83;0.97;;;;;;;8.95;52.71;95262.06;4953950;28;20440;-69
2022/11/29 12:17:35;;;;;;;0.67;0.60;;;;;;;9.23;51.90;95257.78;4940207;28;20959;-68
2022/11/29 12:20:20;;;;;;;0.00;0.00;;;;;;;9.09;52.25;95263.31;4953472;28;20974;-64
2022/11/29 12:23:01;;;;;;;1.20;1.10;;;;;;;9.06;52.71;95253.34;4947966;29;20476;-70
2022/11/29 12:25:33;;;;;;;0.10;0.10;;;;;;;9.14;52.28;95255.56;4948361;28;20451;-68
2022/11/29 12:28:00;;;;;;;0.00;0.00;;;;;;;9.07;52.67;95249.69;4946981;28;20456;-67
2022/11/29 12:30:27;;;;;;;0.25;0.25;;;;;;;9.09;52.56;95257.31;4947323;28;20471;-69
2022/11/29 12:33:02;;;;;;;0.00;0.00;;;;;;;9.18;52.35;95261.09;4934896;29;20203;-63